KGRR

Gerald R Ford International Airport

Grand Rapids, Michigan, USA
METAR KGRR 190253Z 23016KT 10SM CLR M02/M06 A2992 RMK AO2 SLP142 T10171061 58007
Observed Flight Rules
Jan-19 @ 02:53 UTC (55 minutes ago) Visual Flight Rules
Wind Visibility Clouds
230° at 16 knots 10 miles
  • Clear skies
Temperatures Readings
Current -2°C / 28°F
Dewpoint -6°C / 21°F
Humidity 74%
Altimeter 29.92" Hg
Pressure 1014.2 hPa
Elevation 237
METAR KGRR 190253Z 23016KT 10SM CLR M02/M06 A2992 RMK AO2 SLP142 T10171061 58007
Observed Flight Rules
Jan-19 @ 02:53 UTC
(55 minutes ago)
VFR
Wind Visibility
230° at 16 knots 10 miles
Clouds
  • Clear skies
Temperature Dewpoint
-2°C / 28°F -6°C / 21°F
Humidity Altimeter Pressure
74% 29.92" Hg 1014.2 hPa